sensor_id;sensor_type;location;lat;lon;timestamp;temperature;humidity
484;DHT22;228;48.922;12.198;2023-04-01T00:00:59;10.20;71.30
484;DHT22;228;48.922;12.198;2023-04-01T00:03:26;10.20;72.10
484;DHT22;228;48.922;12.198;2023-04-01T00:05:54;10.20;71.90
484;DHT22;228;48.922;12.198;2023-04-01T00:08:21;10.00;73.10
484;DHT22;228;48.922;12.198;2023-04-01T00:10:48;9.90;74.10
484;DHT22;228;48.922;12.198;2023-04-01T00:13:14;9.80;75.00
484;DHT22;228;48.922;12.198;2023-04-01T00:15:42;10.00;73.60
484;DHT22;228;48.922;12.198;2023-04-01T00:18:08;9.90;74.70
484;DHT22;228;48.922;12.198;2023-04-01T00:20:34;9.80;74.60
484;DHT22;228;48.922;12.198;2023-04-01T00:23:00;10.20;72.90
484;DHT22;228;48.922;12.198;2023-04-01T00:25:26;10.10;72.50
484;DHT22;228;48.922;12.198;2023-04-01T00:27:52;9.90;73.80
484;DHT22;228;48.922;12.198;2023-04-01T00:30:20;9.70;74.20
484;DHT22;228;48.922;12.198;2023-04-01T00:32:46;9.60;74.70
484;DHT22;228;48.922;12.198;2023-04-01T00:35:12;9.70;74.50
484;DHT22;228;48.922;12.198;2023-04-01T00:37:38;10.10;72.80
484;DHT22;228;48.922;12.198;2023-04-01T00:40:11;10.10;71.70
484;DHT22;228;48.922;12.198;2023-04-01T00:42:48;9.90;73.40
484;DHT22;228;48.922;12.198;2023-04-01T00:47:53;10.10;71.90
484;DHT22;228;48.922;12.198;2023-04-01T00:50:22;10.00;71.70
484;DHT22;228;48.922;12.198;2023-04-01T00:52:48;9.70;73.80
484;DHT22;228;48.922;12.198;2023-04-01T00:55:16;9.80;74.50
484;DHT22;228;48.922;12.198;2023-04-01T00:57:45;9.60;74.30
484;DHT22;228;48.922;12.198;2023-04-01T01:00:12;9.60;74.90
484;DHT22;228;48.922;12.198;2023-04-01T01:02:41;9.50;75.20
484;DHT22;228;48.922;12.198;2023-04-01T01:05:12;9.70;74.30
484;DHT22;228;48.922;12.198;2023-04-01T01:07:53;9.60;74.60
484;DHT22;228;48.922;12.198;2023-04-01T01:10:36;9.60;74.10
484;DHT22;228;48.922;12.198;2023-04-01T01:13:24;9.80;74.50
484;DHT22;228;48.922;12.198;2023-04-01T01:16:06;9.90;73.70
484;DHT22;228;48.922;12.198;2023-04-01T01:25:25;9.70;74.20
484;DHT22;228;48.922;12.198;2023-04-01T01:36:16;9.40;74.70
484;DHT22;228;48.922;12.198;2023-04-01T01:38:43;9.40;75.20
484;DHT22;228;48.922;12.198;2023-04-01T01:41:12;9.40;75.20
484;DHT22;228;48.922;12.198;2023-04-01T01:43:43;9.40;74.90
484;DHT22;228;48.922;12.198;2023-04-01T01:46:17;9.30;75.00
484;DHT22;228;48.922;12.198;2023-04-01T01:48:47;9.30;75.20
484;DHT22;228;48.922;12.198;2023-04-01T01:51:14;9.50;75.50
484;DHT22;228;48.922;12.198;2023-04-01T01:53:41;9.60;74.60
484;DHT22;228;48.922;12.198;2023-04-01T01:56:07;9.50;74.90
484;DHT22;228;48.922;12.198;2023-04-01T01:58:49;9.50;74.80
484;DHT22;228;48.922;12.198;2023-04-01T02:01:23;9.50;75.30
484;DHT22;228;48.922;12.198;2023-04-01T02:03:53;9.50;75.20
484;DHT22;228;48.922;12.198;2023-04-01T02:06:22;9.60;75.10
484;DHT22;228;48.922;12.198;2023-04-01T02:08:53;9.50;75.50
484;DHT22;228;48.922;12.198;2023-04-01T02:11:32;9.70;75.70
484;DHT22;228;48.922;12.198;2023-04-01T02:14:17;9.90;74.70
484;DHT22;228;48.922;12.198;2023-04-01T02:16:49;9.60;75.70
484;DHT22;228;48.922;12.198;2023-04-01T02:19:17;9.90;75.60
484;DHT22;228;48.922;12.198;2023-04-01T02:21:55;9.90;75.00
484;DHT22;228;48.922;12.198;2023-04-01T02:24:25;9.70;75.60
484;DHT22;228;48.922;12.198;2023-04-01T02:26:52;9.70;75.60
484;DHT22;228;48.922;12.198;2023-04-01T02:29:22;9.80;76.20
484;DHT22;228;48.922;12.198;2023-04-01T02:31:51;9.80;76.30
484;DHT22;228;48.922;12.198;2023-04-01T02:34:19;9.40;77.00
484;DHT22;228;48.922;12.198;2023-04-01T02:36:47;9.50;77.10
484;DHT22;228;48.922;12.198;2023-04-01T02:39:14;9.80;76.40
484;DHT22;228;48.922;12.198;2023-04-01T02:41:45;9.70;76.50
484;DHT22;228;48.922;12.198;2023-04-01T02:44:13;9.60;77.10
484;DHT22;228;48.922;12.198;2023-04-01T02:46:40;9.70;76.60
484;DHT22;228;48.922;12.198;2023-04-01T02:49:06;9.60;76.20
484;DHT22;228;48.922;12.198;2023-04-01T02:51:33;9.50;76.80
484;DHT22;228;48.922;12.198;2023-04-01T02:53:59;9.60;76.70
484;DHT22;228;48.922;12.198;2023-04-01T02:56:26;9.60;76.30
484;DHT22;228;48.922;12.198;2023-04-01T02:58:52;9.70;76.60
484;DHT22;228;48.922;12.198;2023-04-01T03:01:20;9.80;75.90
484;DHT22;228;48.922;12.198;2023-04-01T03:03:46;9.60;76.40
484;DHT22;228;48.922;12.198;2023-04-01T03:06:15;9.60;76.40
484;DHT22;228;48.922;12.198;2023-04-01T03:08:42;9.50;76.80
484;DHT22;228;48.922;12.198;2023-04-01T03:11:09;9.70;76.40
484;DHT22;228;48.922;12.198;2023-04-01T03:13:36;9.70;76.30
484;DHT22;228;48.922;12.198;2023-04-01T03:16:02;9.60;76.20
484;DHT22;228;48.922;12.198;2023-04-01T03:18:28;9.60;76.30
484;DHT22;228;48.922;12.198;2023-04-01T03:20:56;9.70;76.10
484;DHT22;228;48.922;12.198;2023-04-01T03:23:22;9.80;75.60
484;DHT22;228;48.922;12.198;2023-04-01T03:25:49;9.70;75.40
484;DHT22;228;48.922;12.198;2023-04-01T03:28:16;9.40;76.30
484;DHT22;228;48.922;12.198;2023-04-01T03:30:42;9.50;76.00
484;DHT22;228;48.922;12.198;2023-04-01T03:33:09;9.20;76.70
484;DHT22;228;48.922;12.198;2023-04-01T03:35:35;9.20;76.70
484;DHT22;228;48.922;12.198;2023-04-01T03:38:02;9.10;78.20
484;DHT22;228;48.922;12.198;2023-04-01T03:40:28;9.20;76.70
484;DHT22;228;48.922;12.198;2023-04-01T03:42:54;9.20;77.30
484;DHT22;228;48.922;12.198;2023-04-01T03:45:21;9.20;76.70
484;DHT22;228;48.922;12.198;2023-04-01T03:47:47;9.30;76.70
484;DHT22;228;48.922;12.198;2023-04-01T03:50:13;9.30;76.50
484;DHT22;228;48.922;12.198;2023-04-01T03:52:40;9.10;76.60
484;DHT22;228;48.922;12.198;2023-04-01T03:55:07;9.20;77.40
484;DHT22;228;48.922;12.198;2023-04-01T03:57:33;9.20;77.30
484;DHT22;228;48.922;12.198;2023-04-01T04:00:08;9.10;77.40
484;DHT22;228;48.922;12.198;2023-04-01T04:02:39;9.00;77.60
484;DHT22;228;48.922;12.198;2023-04-01T04:05:06;9.10;77.40
484;DHT22;228;48.922;12.198;2023-04-01T04:07:34;9.10;77.60
484;DHT22;228;48.922;12.198;2023-04-01T04:10:07;9.10;77.60
484;DHT22;228;48.922;12.198;2023-04-01T04:12:33;8.90;78.60
484;DHT22;228;48.922;12.198;2023-04-01T04:14:59;8.90;78.40
484;DHT22;228;48.922;12.198;2023-04-01T04:17:25;9.10;78.20
484;DHT22;228;48.922;12.198;2023-04-01T04:19:51;9.30;77.60
484;DHT22;228;48.922;12.198;2023-04-01T04:22:17;9.30;76.80
484;DHT22;228;48.922;12.198;2023-04-01T04:24:43;9.40;76.90
484;DHT22;228;48.922;12.198;2023-04-01T04:27:12;9.50;76.60
484;DHT22;228;48.922;12.198;2023-04-01T04:29:47;9.50;76.10
484;DHT22;228;48.922;12.198;2023-04-01T04:32:13;9.70;75.70
484;DHT22;228;48.922;12.198;2023-04-01T04:34:39;9.70;75.40
484;DHT22;228;48.922;12.198;2023-04-01T04:37:05;9.30;76.60
484;DHT22;228;48.922;12.198;2023-04-01T04:39:34;9.30;77.70
484;DHT22;228;48.922;12.198;2023-04-01T04:42:00;9.10;78.50
484;DHT22;228;48.922;12.198;2023-04-01T04:44:26;9.20;78.90
484;DHT22;228;48.922;12.198;2023-04-01T04:46:52;9.30;78.40
484;DHT22;228;48.922;12.198;2023-04-01T04:49:18;9.50;77.70
484;DHT22;228;48.922;12.198;2023-04-01T04:51:45;9.40;76.90
484;DHT22;228;48.922;12.198;2023-04-01T04:54:15;9.20;76.70
484;DHT22;228;48.922;12.198;2023-04-01T04:56:54;9.30;78.10
484;DHT22;228;48.922;12.198;2023-04-01T04:59:21;9.30;76.80
484;DHT22;228;48.922;12.198;2023-04-01T05:01:56;9.00;77.40
484;DHT22;228;48.922;12.198;2023-04-01T05:04:21;9.00;77.80
484;DHT22;228;48.922;12.198;2023-04-01T05:06:48;8.90;77.90
484;DHT22;228;48.922;12.198;2023-04-01T05:09:15;9.10;77.90
484;DHT22;228;48.922;12.198;2023-04-01T05:11:41;8.90;77.80
484;DHT22;228;48.922;12.198;2023-04-01T05:14:13;9.00;77.70
484;DHT22;228;48.922;12.198;2023-04-01T05:16:41;9.10;77.80
484;DHT22;228;48.922;12.198;2023-04-01T05:19:07;8.90;78.20
484;DHT22;228;48.922;12.198;2023-04-01T05:21:33;8.90;78.00
484;DHT22;228;48.922;12.198;2023-04-01T05:23:58;9.00;78.20
484;DHT22;228;48.922;12.198;2023-04-01T05:26:25;9.00;78.00
484;DHT22;228;48.922;12.198;2023-04-01T05:28:52;8.80;78.70
484;DHT22;228;48.922;12.198;2023-04-01T05:31:18;8.80;78.60
484;DHT22;228;48.922;12.198;2023-04-01T05:33:46;8.90;77.60
484;DHT22;228;48.922;12.198;2023-04-01T05:36:14;8.90;77.70
484;DHT22;228;48.922;12.198;2023-04-01T05:38:41;9.10;77.40
484;DHT22;228;48.922;12.198;2023-04-01T05:41:10;9.20;76.70
484;DHT22;228;48.922;12.198;2023-04-01T05:43:41;9.40;75.10
484;DHT22;228;48.922;12.198;2023-04-01T05:46:31;9.40;74.90
484;DHT22;228;48.922;12.198;2023-04-01T05:49:05;9.50;74.90
484;DHT22;228;48.922;12.198;2023-04-01T05:51:31;9.70;74.70
484;DHT22;228;48.922;12.198;2023-04-01T05:53:57;9.60;74.00
484;DHT22;228;48.922;12.198;2023-04-01T05:56:24;9.60;74.10
484;DHT22;228;48.922;12.198;2023-04-01T05:58:53;9.80;73.90
484;DHT22;228;48.922;12.198;2023-04-01T06:01:20;10.00;71.80
484;DHT22;228;48.922;12.198;2023-04-01T06:03:46;9.80;72.80
484;DHT22;228;48.922;12.198;2023-04-01T06:06:21;10.00;71.80
484;DHT22;228;48.922;12.198;2023-04-01T06:08:51;10.20;70.60
484;DHT22;228;48.922;12.198;2023-04-01T06:23:46;10.00;70.60
484;DHT22;228;48.922;12.198;2023-04-01T06:32:31;10.20;69.80
484;DHT22;228;48.922;12.198;2023-04-01T06:35:34;10.40;69.00
484;DHT22;228;48.922;12.198;2023-04-01T06:50:44;10.40;69.80
484;DHT22;228;48.922;12.198;2023-04-01T06:59:59;10.90;68.70
484;DHT22;228;48.922;12.198;2023-04-01T07:02:38;11.00;67.80
484;DHT22;228;48.922;12.198;2023-04-01T07:05:07;10.90;67.00
484;DHT22;228;48.922;12.198;2023-04-01T07:13:25;10.90;67.80
484;DHT22;228;48.922;12.198;2023-04-01T07:16:19;10.90;68.30
484;DHT22;228;48.922;12.198;2023-04-01T07:19:03;11.20;67.50
484;DHT22;228;48.922;12.198;2023-04-01T07:22:09;11.10;67.00
484;DHT22;228;48.922;12.198;2023-04-01T07:27:43;11.50;67.80
484;DHT22;228;48.922;12.198;2023-04-01T07:30:21;11.30;66.40
484;DHT22;228;48.922;12.198;2023-04-01T07:32:56;11.10;67.70
484;DHT22;228;48.922;12.198;2023-04-01T07:35:42;11.20;67.80
484;DHT22;228;48.922;12.198;2023-04-01T07:44:10;11.00;67.40
484;DHT22;228;48.922;12.198;2023-04-01T07:49:47;11.20;67.00
484;DHT22;228;48.922;12.198;2023-04-01T07:55:49;11.30;65.30
484;DHT22;228;48.922;12.198;2023-04-01T07:58:22;11.20;66.30
484;DHT22;228;48.922;12.198;2023-04-01T08:01:04;11.50;66.80
484;DHT22;228;48.922;12.198;2023-04-01T08:04:05;11.40;65.00
484;DHT22;228;48.922;12.198;2023-04-01T08:10:18;12.10;64.30
484;DHT22;228;48.922;12.198;2023-04-01T08:26:00;11.70;63.10
484;DHT22;228;48.922;12.198;2023-04-01T08:31:36;12.10;61.90
484;DHT22;228;48.922;12.198;2023-04-01T08:34:16;12.10;60.90
484;DHT22;228;48.922;12.198;2023-04-01T08:36:51;12.00;61.20
484;DHT22;228;48.922;12.198;2023-04-01T08:39:29;12.30;63.10
484;DHT22;228;48.922;12.198;2023-04-01T08:48:04;12.60;62.40
484;DHT22;228;48.922;12.198;2023-04-01T09:03:22;12.80;58.40
484;DHT22;228;48.922;12.198;2023-04-01T09:06:19;13.00;57.70
484;DHT22;228;48.922;12.198;2023-04-01T09:40:33;13.50;55.50
484;DHT22;228;48.922;12.198;2023-04-01T09:43:16;13.60;54.90
484;DHT22;228;48.922;12.198;2023-04-01T10:19:16;13.90;55.00
484;DHT22;228;48.922;12.198;2023-04-01T10:31:50;14.20;55.10
484;DHT22;228;48.922;12.198;2023-04-01T10:50:11;14.00;57.30
484;DHT22;228;48.922;12.198;2023-04-01T11:24:57;14.00;56.60
484;DHT22;228;48.922;12.198;2023-04-01T11:27:51;13.90;57.10
484;DHT22;228;48.922;12.198;2023-04-01T11:41:08;14.20;57.00
484;DHT22;228;48.922;12.198;2023-04-01T11:44:21;13.60;59.10
484;DHT22;228;48.922;12.198;2023-04-01T11:47:30;12.70;65.00
484;DHT22;228;48.922;12.198;2023-04-01T11:59:42;10.30;77.30
484;DHT22;228;48.922;12.198;2023-04-01T12:02:20;10.50;79.30
484;DHT22;228;48.922;12.198;2023-04-01T12:14:14;10.40;80.20
484;DHT22;228;48.922;12.198;2023-04-01T12:32:09;9.90;82.30
484;DHT22;228;48.922;12.198;2023-04-01T12:43:54;9.90;84.70
484;DHT22;228;48.922;12.198;2023-04-01T12:50:33;9.70;85.60
484;DHT22;228;48.922;12.198;2023-04-01T12:56:00;10.00;83.40
484;DHT22;228;48.922;12.198;2023-04-01T13:01:52;10.20;82.90
484;DHT22;228;48.922;12.198;2023-04-01T13:04:54;10.10;82.90
484;DHT22;228;48.922;12.198;2023-04-01T13:07:36;10.30;82.80
484;DHT22;228;48.922;12.198;2023-04-01T13:19:17;10.40;83.00
484;DHT22;228;48.922;12.198;2023-04-01T13:24:39;9.90;86.30
484;DHT22;228;48.922;12.198;2023-04-01T13:30:03;9.90;86.80
484;DHT22;228;48.922;12.198;2023-04-01T13:42:25;10.20;84.80
484;DHT22;228;48.922;12.198;2023-04-01T13:45:15;10.50;83.20
484;DHT22;228;48.922;12.198;2023-04-01T14:21:46;10.60;84.90
484;DHT22;228;48.922;12.198;2023-04-01T14:24:33;10.60;86.00
484;DHT22;228;48.922;12.198;2023-04-01T14:34:40;10.70;84.20
484;DHT22;228;48.922;12.198;2023-04-01T14:40:15;10.80;83.20
484;DHT22;228;48.922;12.198;2023-04-01T14:51:10;10.90;84.90
484;DHT22;228;48.922;12.198;2023-04-01T14:53:53;11.80;83.50
484;DHT22;228;48.922;12.198;2023-04-01T14:56:39;11.80;80.80
484;DHT22;228;48.922;12.198;2023-04-01T14:59:27;11.90;80.80
484;DHT22;228;48.922;12.198;2023-04-01T15:11:14;11.30;83.00
484;DHT22;228;48.922;12.198;2023-04-01T15:41:46;10.60;84.90
484;DHT22;228;48.922;12.198;2023-04-01T15:45:11;10.70;85.80
484;DHT22;228;48.922;12.198;2023-04-01T15:57:46;11.00;84.30
484;DHT22;228;48.922;12.198;2023-04-01T16:01:08;11.20;83.50
484;DHT22;228;48.922;12.198;2023-04-01T16:04:32;11.00;82.70
484;DHT22;228;48.922;12.198;2023-04-01T16:13:33;10.80;84.00
484;DHT22;228;48.922;12.198;2023-04-01T16:30:48;11.30;80.90
484;DHT22;228;48.922;12.198;2023-04-01T16:47:39;11.00;81.00
484;DHT22;228;48.922;12.198;2023-04-01T16:50:29;10.80;81.00
484;DHT22;228;48.922;12.198;2023-04-01T16:53:45;10.60;81.60
484;DHT22;228;48.922;12.198;2023-04-01T16:59:14;10.80;80.90
484;DHT22;228;48.922;12.198;2023-04-01T17:02:14;10.70;81.30
484;DHT22;228;48.922;12.198;2023-04-01T17:08:10;10.80;80.80
484;DHT22;228;48.922;12.198;2023-04-01T17:49:19;10.50;84.50
484;DHT22;228;48.922;12.198;2023-04-01T18:08:57;10.90;83.50
484;DHT22;228;48.922;12.198;2023-04-01T18:11:34;10.80;84.00
484;DHT22;228;48.922;12.198;2023-04-01T18:17:25;10.90;82.90
484;DHT22;228;48.922;12.198;2023-04-01T18:20:03;10.90;83.00
484;DHT22;228;48.922;12.198;2023-04-01T18:22:53;11.30;82.10
484;DHT22;228;48.922;12.198;2023-04-01T18:25:31;11.50;80.80
484;DHT22;228;48.922;12.198;2023-04-01T18:28:32;11.10;81.20
484;DHT22;228;48.922;12.198;2023-04-01T18:31:05;11.00;83.10
484;DHT22;228;48.922;12.198;2023-04-01T18:33:57;11.10;82.00
484;DHT22;228;48.922;12.198;2023-04-01T18:46:49;10.90;80.90
484;DHT22;228;48.922;12.198;2023-04-01T18:49:33;10.70;82.40
484;DHT22;228;48.922;12.198;2023-04-01T18:52:16;10.60;82.30
484;DHT22;228;48.922;12.198;2023-04-01T18:54:55;10.30;83.50
484;DHT22;228;48.922;12.198;2023-04-01T18:57:45;10.70;82.60
484;DHT22;228;48.922;12.198;2023-04-01T19:03:38;11.00;81.60
484;DHT22;228;48.922;12.198;2023-04-01T19:06:23;10.50;82.60
484;DHT22;228;48.922;12.198;2023-04-01T19:08:54;10.60;83.10
484;DHT22;228;48.922;12.198;2023-04-01T19:11:43;10.80;82.40
484;DHT22;228;48.922;12.198;2023-04-01T19:17:50;10.80;81.60
484;DHT22;228;48.922;12.198;2023-04-01T19:20:32;10.70;82.10
484;DHT22;228;48.922;12.198;2023-04-01T19:26:00;10.80;81.40
484;DHT22;228;48.922;12.198;2023-04-01T19:28:56;10.70;81.40
484;DHT22;228;48.922;12.198;2023-04-01T19:32:13;10.50;82.50
484;DHT22;228;48.922;12.198;2023-04-01T19:34:57;10.70;82.40
484;DHT22;228;48.922;12.198;2023-04-01T19:37:56;10.60;82.40
484;DHT22;228;48.922;12.198;2023-04-01T19:40:53;10.90;81.00
484;DHT22;228;48.922;12.198;2023-04-01T19:43:42;10.80;79.90
484;DHT22;228;48.922;12.198;2023-04-01T19:46:33;10.80;80.80
484;DHT22;228;48.922;12.198;2023-04-01T19:51:57;11.00;79.30
484;DHT22;228;48.922;12.198;2023-04-01T20:00:22;10.60;80.50
484;DHT22;228;48.922;12.198;2023-04-01T20:16:09;10.90;79.70
484;DHT22;228;48.922;12.198;2023-04-01T20:18:47;10.80;79.10
484;DHT22;228;48.922;12.198;2023-04-01T20:21:45;10.90;79.30
484;DHT22;228;48.922;12.198;2023-04-01T20:24:44;11.00;79.00
484;DHT22;228;48.922;12.198;2023-04-01T20:27:19;11.40;77.90
484;DHT22;228;48.922;12.198;2023-04-01T20:36:33;10.70;79.70
484;DHT22;228;48.922;12.198;2023-04-01T20:51:16;11.10;77.40
484;DHT22;228;48.922;12.198;2023-04-01T20:54:02;10.90;77.40
484;DHT22;228;48.922;12.198;2023-04-01T21:09:16;11.50;76.00
484;DHT22;228;48.922;12.198;2023-04-01T21:24:42;12.10;73.50
484;DHT22;228;48.922;12.198;2023-04-01T21:27:38;11.70;73.70
484;DHT22;228;48.922;12.198;2023-04-01T21:30:19;11.50;74.50
484;DHT22;228;48.922;12.198;2023-04-01T21:33:34;11.30;75.70
484;DHT22;228;48.922;12.198;2023-04-01T21:39:14;11.10;76.30
484;DHT22;228;48.922;12.198;2023-04-01T21:42:01;11.50;75.80
484;DHT22;228;48.922;12.198;2023-04-01T21:56:43;11.30;76.60
484;DHT22;228;48.922;12.198;2023-04-01T22:05:50;10.80;78.40
484;DHT22;228;48.922;12.198;2023-04-01T22:11:47;11.00;78.00
484;DHT22;228;48.922;12.198;2023-04-01T22:14:44;10.90;78.60
484;DHT22;228;48.922;12.198;2023-04-01T22:20:27;10.70;78.10
484;DHT22;228;48.922;12.198;2023-04-01T22:31:52;11.10;76.80
484;DHT22;228;48.922;12.198;2023-04-01T22:34:55;11.20;76.50
484;DHT22;228;48.922;12.198;2023-04-01T22:41:00;11.40;75.70
484;DHT22;228;48.922;12.198;2023-04-01T22:49:17;11.50;74.50
484;DHT22;228;48.922;12.198;2023-04-01T22:52:02;11.60;74.10
484;DHT22;228;48.922;12.198;2023-04-01T22:54:59;11.80;73.30
484;DHT22;228;48.922;12.198;2023-04-01T22:57:37;11.80;72.80
484;DHT22;228;48.922;12.198;2023-04-01T23:00:28;11.60;73.30
484;DHT22;228;48.922;12.198;2023-04-01T23:03:14;11.30;73.80
484;DHT22;228;48.922;12.198;2023-04-01T23:06:01;11.50;74.00
484;DHT22;228;48.922;12.198;2023-04-01T23:08:56;11.60;72.90
484;DHT22;228;48.922;12.198;2023-04-01T23:12:00;11.30;73.90
484;DHT22;228;48.922;12.198;2023-04-01T23:14:43;11.10;74.10
484;DHT22;228;48.922;12.198;2023-04-01T23:20:20;11.20;74.20
484;DHT22;228;48.922;12.198;2023-04-01T23:23:20;11.30;73.60
484;DHT22;228;48.922;12.198;2023-04-01T23:26:07;11.60;72.80
484;DHT22;228;48.922;12.198;2023-04-01T23:36:31;10.80;74.20
484;DHT22;228;48.922;12.198;2023-04-01T23:39:03;10.80;75.10
484;DHT22;228;48.922;12.198;2023-04-01T23:41:33;10.70;74.90
484;DHT22;228;48.922;12.198;2023-04-01T23:44:09;10.60;75.40
484;DHT22;228;48.922;12.198;2023-04-01T23:46:39;11.00;74.80
484;DHT22;228;48.922;12.198;2023-04-01T23:49:16;10.80;74.70
484;DHT22;228;48.922;12.198;2023-04-01T23:51:59;10.80;75.10
484;DHT22;228;48.922;12.198;2023-04-01T23:57:21;10.50;75.90
